createdAt,value
2023-06-11T00:03:22.360Z,22.00
2023-06-11T00:07:06.540Z,22.00
2023-06-11T00:10:48.535Z,21.90
2023-06-11T00:14:30.389Z,21.80
2023-06-11T00:18:13.155Z,21.80
2023-06-11T00:21:57.318Z,21.80
2023-06-11T00:25:39.275Z,21.70
2023-06-11T00:29:21.199Z,21.50
2023-06-11T00:33:03.059Z,21.50
2023-06-11T00:36:46.055Z,21.50
2023-06-11T00:40:27.974Z,21.40
2023-06-11T00:44:10.291Z,21.20
2023-06-11T00:47:52.284Z,21.10
2023-06-11T00:51:34.988Z,21.20
2023-06-11T00:55:17.537Z,21.20
2023-06-11T00:59:00.935Z,21.30
2023-06-11T01:02:58.451Z,21.30
2023-06-11T01:06:47.425Z,21.30
2023-06-11T01:10:30.881Z,21.30
2023-06-11T01:14:14.405Z,21.40
2023-06-11T01:18:03.352Z,21.40
2023-06-11T01:22:00.464Z,21.30
2023-06-11T01:25:59.146Z,21.30
2023-06-11T01:29:46.673Z,21.30
2023-06-11T01:33:28.953Z,21.30
2023-06-11T01:37:10.881Z,21.20
2023-06-11T01:40:56.939Z,21.20
2023-06-11T01:44:38.908Z,21.10
2023-06-11T01:48:21.616Z,21.00
2023-06-11T01:52:03.627Z,21.00
2023-06-11T01:55:45.636Z,21.00
2023-06-11T01:59:27.507Z,21.00
2023-06-11T02:03:09.721Z,21.00
2023-06-11T02:06:51.759Z,21.00
2023-06-11T02:10:33.599Z,21.00
2023-06-11T02:14:15.613Z,20.90
2023-06-11T02:17:57.575Z,20.90
2023-06-11T02:21:39.432Z,20.90
2023-06-11T02:25:21.451Z,20.80
2023-06-11T02:29:03.331Z,20.80
2023-06-11T02:32:46.120Z,20.80
2023-06-11T02:36:28.249Z,20.80
2023-06-11T02:40:12.988Z,20.70
2023-06-11T02:43:55.144Z,20.80
2023-06-11T02:47:37.065Z,20.80
2023-06-11T02:51:19.012Z,20.80
2023-06-11T02:55:00.940Z,20.80
2023-06-11T02:58:42.803Z,20.80
2023-06-11T03:02:24.645Z,20.80
2023-06-11T03:06:06.597Z,20.80
2023-06-11T03:09:48.420Z,20.70
2023-06-11T03:13:30.432Z,20.70
2023-06-11T03:17:12.255Z,20.70
2023-06-11T03:20:54.121Z,20.60
2023-06-11T03:24:36.268Z,20.60
2023-06-11T03:28:18.241Z,20.60
2023-06-11T03:32:00.049Z,20.60
2023-06-11T03:35:41.902Z,20.60
2023-06-11T03:39:23.699Z,20.60
2023-06-11T03:43:05.626Z,20.50
2023-06-11T03:46:48.269Z,20.50
2023-06-11T03:50:30.243Z,20.50
2023-06-11T03:54:12.107Z,20.50
2023-06-11T03:57:54.085Z,20.50
2023-06-11T04:01:36.219Z,20.40
2023-06-11T04:05:18.208Z,20.40
2023-06-11T04:09:00.036Z,20.30
2023-06-11T04:12:41.950Z,20.30
2023-06-11T04:16:24.041Z,20.30
2023-06-11T04:20:07.154Z,20.30
2023-06-11T04:23:49.122Z,20.40
2023-06-11T04:27:34.762Z,20.40
2023-06-11T04:31:16.640Z,20.40
2023-06-11T04:34:58.692Z,20.40
2023-06-11T04:38:45.815Z,20.30
2023-06-11T04:42:28.552Z,20.30
2023-06-11T04:46:10.654Z,20.30
2023-06-11T04:49:53.174Z,20.20
2023-06-11T04:53:38.549Z,20.20
2023-06-11T04:57:21.524Z,20.20
2023-06-11T05:01:06.347Z,20.20
2023-06-11T05:04:50.731Z,20.20
2023-06-11T05:08:33.676Z,20.20
2023-06-11T05:12:15.640Z,20.20
2023-06-11T05:15:58.925Z,20.20
2023-06-11T05:19:40.934Z,20.20
2023-06-11T05:23:29.424Z,20.20
2023-06-11T05:27:11.433Z,20.10
2023-06-11T05:30:53.281Z,20.10
2023-06-11T05:34:35.578Z,20.10
2023-06-11T05:38:18.479Z,20.20
2023-06-11T05:42:00.339Z,20.20
2023-06-11T05:45:49.766Z,20.10
2023-06-11T05:49:31.992Z,20.20
2023-06-11T05:53:15.011Z,20.20
2023-06-11T05:56:58.161Z,20.20
2023-06-11T06:00:39.986Z,20.20
2023-06-11T06:04:21.983Z,20.30
2023-06-11T06:08:04.083Z,20.30
2023-06-11T06:11:45.964Z,20.30
2023-06-11T06:15:27.781Z,20.20
2023-06-11T06:19:10.302Z,20.30
2023-06-11T06:22:52.115Z,20.30
2023-06-11T06:26:34.024Z,20.30
2023-06-11T06:30:16.067Z,20.40
2023-06-11T06:33:57.966Z,20.50
2023-06-11T06:37:39.796Z,20.50
2023-06-11T06:41:21.710Z,20.50
2023-06-11T06:45:03.683Z,20.60
2023-06-11T06:48:45.832Z,20.70
2023-06-11T06:52:28.814Z,20.80
2023-06-11T06:56:10.898Z,20.90
2023-06-11T06:59:52.729Z,21.00
2023-06-11T07:03:37.572Z,21.10
2023-06-11T07:07:19.434Z,21.20
2023-06-11T07:11:01.558Z,21.30
2023-06-11T07:14:43.403Z,21.50
2023-06-11T07:18:26.271Z,21.70
2023-06-11T07:22:08.108Z,21.90
2023-06-11T07:25:51.220Z,22.40
2023-06-11T07:29:33.900Z,22.80
2023-06-11T07:33:18.254Z,23.10
2023-06-11T07:37:00.210Z,23.30
2023-06-11T07:40:42.096Z,23.50
2023-06-11T07:44:23.995Z,23.70
2023-06-11T07:48:06.289Z,23.80
2023-06-11T07:51:48.106Z,23.80
2023-06-11T07:55:30.040Z,23.80
2023-06-11T07:59:11.862Z,23.60
2023-06-11T08:02:54.081Z,23.50
2023-06-11T08:06:37.153Z,23.40
2023-06-11T08:10:19.592Z,23.20
2023-06-11T08:14:01.494Z,23.20
2023-06-11T08:17:43.375Z,23.10
2023-06-11T08:21:26.275Z,23.00
2023-06-11T08:25:10.671Z,23.00
2023-06-11T08:28:52.536Z,23.00
2023-06-11T08:32:34.569Z,22.90
2023-06-11T08:36:16.560Z,23.00
2023-06-11T08:39:58.422Z,23.00
2023-06-11T08:43:40.360Z,23.00
2023-06-11T08:47:23.691Z,22.90
2023-06-11T08:51:09.705Z,22.80
2023-06-11T08:54:51.805Z,22.70
2023-06-11T08:58:35.397Z,22.60
2023-06-11T09:02:18.260Z,22.50
2023-06-11T09:06:01.117Z,22.40
2023-06-11T09:09:43.014Z,22.30
2023-06-11T09:13:28.815Z,22.30
2023-06-11T09:17:16.606Z,22.20
2023-06-11T09:21:02.018Z,22.20
2023-06-11T09:24:44.111Z,22.20
2023-06-11T09:28:38.474Z,22.20
2023-06-11T09:32:33.493Z,22.10
2023-06-11T09:36:17.038Z,22.10
2023-06-11T09:39:59.026Z,22.00
2023-06-11T09:43:42.161Z,21.90
2023-06-11T09:47:24.649Z,21.90
2023-06-11T09:51:10.963Z,21.90
2023-06-11T09:54:53.271Z,21.90
2023-06-11T09:58:35.140Z,22.00
2023-06-11T10:02:17.300Z,22.00
2023-06-11T10:06:00.153Z,22.00
2023-06-11T10:09:43.901Z,22.00
2023-06-11T10:13:30.445Z,22.00
2023-06-11T10:17:12.396Z,22.10
2023-06-11T10:21:01.358Z,22.20
2023-06-11T10:24:43.394Z,22.10
2023-06-11T10:28:42.398Z,22.20
2023-06-11T10:32:24.546Z,22.20
2023-06-11T10:36:06.519Z,22.20
2023-06-11T10:39:51.940Z,22.20
2023-06-11T10:43:37.275Z,22.20
2023-06-11T10:47:19.157Z,22.30
2023-06-11T10:51:05.083Z,22.30
2023-06-11T10:54:51.805Z,22.40
2023-06-11T10:58:34.903Z,22.50
2023-06-11T11:02:17.526Z,22.50
2023-06-11T11:05:59.927Z,22.60
2023-06-11T11:09:41.798Z,22.70
2023-06-11T11:13:24.075Z,22.80
2023-06-11T11:17:06.753Z,22.90
2023-06-11T11:20:48.688Z,23.00
2023-06-11T11:24:38.303Z,23.20
2023-06-11T11:28:22.523Z,23.30
2023-06-11T11:32:04.997Z,23.40
2023-06-11T11:35:49.703Z,23.50
2023-06-11T11:39:33.396Z,23.70
2023-06-11T11:43:15.293Z,23.90
2023-06-11T11:47:01.526Z,24.10
2023-06-11T11:50:46.011Z,24.40
2023-06-11T11:54:28.249Z,24.60
2023-06-11T11:58:12.673Z,24.80
2023-06-11T12:01:58.181Z,25.00
2023-06-11T12:05:40.498Z,25.10
2023-06-11T12:09:22.348Z,25.10
2023-06-11T12:13:04.959Z,25.20
2023-06-11T12:16:50.621Z,25.30
2023-06-11T12:20:33.169Z,25.50
2023-06-11T12:24:18.952Z,25.50
2023-06-11T12:28:01.738Z,25.40
2023-06-11T12:31:43.897Z,25.30
2023-06-11T12:35:31.182Z,25.10
2023-06-11T12:39:14.677Z,24.90
2023-06-11T12:43:00.776Z,24.70
2023-06-11T12:46:43.011Z,24.60
2023-06-11T12:50:27.546Z,24.50
2023-06-11T12:54:11.313Z,24.40
2023-06-11T12:57:53.129Z,24.40
2023-06-11T13:01:35.049Z,24.40
2023-06-11T13:05:16.994Z,24.40
2023-06-11T13:08:59.217Z,24.50
2023-06-11T13:12:41.386Z,24.50
2023-06-11T13:16:23.885Z,24.60
2023-06-11T13:20:06.362Z,24.70
2023-06-11T13:23:48.480Z,24.80
2023-06-11T13:27:30.396Z,24.80
2023-06-11T13:31:13.115Z,24.80
2023-06-11T13:34:55.169Z,24.90
2023-06-11T13:38:37.811Z,25.00
2023-06-11T13:42:19.748Z,25.10
2023-06-11T13:46:01.900Z,25.10
2023-06-11T13:49:43.901Z,25.20
2023-06-11T13:53:25.942Z,25.40
2023-06-11T13:57:07.945Z,25.50
2023-06-11T14:00:53.152Z,25.60
2023-06-11T14:04:36.154Z,25.70
2023-06-11T14:08:19.120Z,25.80
2023-06-11T14:12:01.082Z,26.10
2023-06-11T14:15:42.966Z,26.30
2023-06-11T14:19:24.798Z,26.40
2023-06-11T14:23:06.869Z,26.50
2023-06-11T14:26:48.760Z,26.60
2023-06-11T14:30:30.678Z,26.70
2023-06-11T14:34:12.512Z,26.70
2023-06-11T14:37:57.738Z,26.80
2023-06-11T14:41:41.261Z,26.90
2023-06-11T14:45:23.071Z,27.00
2023-06-11T14:49:11.315Z,27.10
2023-06-11T14:52:53.723Z,27.20
2023-06-11T14:56:35.582Z,27.30
2023-06-11T15:00:17.632Z,27.20
2023-06-11T15:03:59.524Z,27.30
2023-06-11T15:07:41.429Z,27.50
2023-06-11T15:11:23.265Z,27.60
2023-06-11T15:15:06.474Z,27.80
2023-06-11T15:18:48.355Z,27.90
2023-06-11T15:22:30.196Z,28.00
2023-06-11T15:26:12.164Z,28.10
2023-06-11T15:29:54.007Z,28.00
2023-06-11T15:33:35.933Z,27.90
2023-06-11T15:37:18.483Z,27.80
2023-06-11T15:41:00.318Z,27.60
2023-06-11T15:44:42.400Z,27.50
2023-06-11T15:48:25.869Z,27.40
2023-06-11T15:52:08.804Z,27.30
2023-06-11T15:55:50.789Z,27.30
2023-06-11T15:59:32.914Z,27.30
2023-06-11T16:03:15.960Z,27.20
2023-06-11T16:07:00.006Z,27.10
2023-06-11T16:10:41.900Z,27.00
2023-06-11T16:14:23.909Z,26.80
2023-06-11T16:18:05.848Z,26.70
2023-06-11T16:21:48.027Z,26.70
2023-06-11T16:25:30.055Z,26.60
2023-06-11T16:29:11.886Z,26.60
2023-06-11T16:32:53.855Z,26.50
2023-06-11T16:36:36.052Z,26.40
2023-06-11T16:40:18.012Z,26.40
2023-06-11T16:43:59.812Z,26.40
2023-06-11T16:47:41.732Z,26.40
2023-06-11T16:51:23.573Z,26.40
2023-06-11T16:55:06.352Z,26.30
2023-06-11T16:58:48.252Z,26.20
2023-06-11T17:02:33.077Z,26.10
2023-06-11T17:06:15.151Z,26.10
2023-06-11T17:09:56.972Z,26.10
2023-06-11T17:13:38.891Z,26.00
2023-06-11T17:17:20.746Z,26.10
2023-06-11T17:21:02.819Z,26.10
2023-06-11T17:24:44.705Z,26.00
2023-06-11T17:28:27.247Z,26.00
2023-06-11T17:32:09.493Z,26.00
2023-06-11T17:35:53.201Z,25.90
2023-06-11T17:39:35.136Z,25.90
2023-06-11T17:43:17.136Z,25.80
2023-06-11T17:46:59.058Z,25.60
2023-06-11T17:50:40.880Z,25.50
2023-06-11T17:54:22.742Z,25.40
2023-06-11T17:58:04.713Z,25.40
2023-06-11T18:01:46.759Z,25.40
2023-06-11T18:05:32.256Z,25.40
2023-06-11T18:09:14.755Z,25.40
2023-06-11T18:12:56.824Z,25.40
2023-06-11T18:16:38.918Z,25.40
2023-06-11T18:20:20.862Z,25.40
2023-06-11T18:24:02.790Z,25.30
2023-06-11T18:27:44.862Z,25.30
2023-06-11T18:31:26.824Z,25.20
2023-06-11T18:35:09.301Z,25.20
2023-06-11T18:38:51.234Z,25.10
2023-06-11T18:42:33.127Z,25.10
2023-06-11T18:46:15.211Z,25.10
2023-06-11T18:49:57.458Z,25.10
2023-06-11T18:53:39.334Z,25.10
2023-06-11T18:57:21.276Z,25.10
2023-06-11T19:01:03.464Z,25.10
2023-06-11T19:04:45.573Z,25.00
2023-06-11T19:08:27.570Z,24.90
2023-06-11T19:12:11.257Z,24.80
2023-06-11T19:15:55.272Z,24.80
2023-06-11T19:19:38.451Z,24.70
2023-06-11T19:23:21.175Z,24.60
2023-06-11T19:27:03.666Z,24.60
2023-06-11T19:30:46.268Z,24.60
2023-06-11T19:34:28.372Z,24.50
2023-06-11T19:38:10.578Z,24.40
2023-06-11T19:41:52.444Z,24.40
2023-06-11T19:45:34.275Z,24.30
2023-06-11T19:49:16.206Z,24.20
2023-06-11T19:52:58.191Z,24.10
2023-06-11T19:56:40.189Z,24.10
2023-06-11T20:00:22.284Z,24.00
2023-06-11T20:04:04.336Z,23.90
2023-06-11T20:07:46.947Z,23.80
2023-06-11T20:11:29.467Z,23.70
2023-06-11T20:15:11.988Z,23.60
2023-06-11T20:18:54.935Z,23.50
2023-06-11T20:22:37.234Z,23.50
2023-06-11T20:26:19.516Z,23.40
2023-06-11T20:30:01.780Z,23.30
2023-06-11T20:33:43.625Z,23.30
2023-06-11T20:37:25.763Z,23.30
2023-06-11T20:41:07.642Z,23.20
2023-06-11T20:44:49.592Z,23.20
2023-06-11T20:48:31.531Z,23.20
2023-06-11T20:52:13.427Z,23.10
2023-06-11T20:55:55.685Z,23.10
2023-06-11T20:59:37.507Z,23.00
2023-06-11T21:03:19.577Z,22.90
2023-06-11T21:07:01.670Z,22.80
2023-06-11T21:10:43.521Z,22.80
2023-06-11T21:14:28.603Z,22.70
2023-06-11T21:18:10.635Z,22.70
2023-06-11T21:21:52.524Z,22.60
2023-06-11T21:25:34.673Z,22.50
2023-06-11T21:29:16.552Z,22.40
2023-06-11T21:32:58.510Z,22.30
2023-06-11T21:36:40.343Z,22.20
2023-06-11T21:40:22.446Z,22.10
2023-06-11T21:44:04.501Z,22.10
2023-06-11T21:47:46.450Z,22.00
2023-06-11T21:51:30.358Z,21.90
2023-06-11T21:55:12.304Z,21.90
2023-06-11T21:58:54.106Z,21.80
2023-06-11T22:02:36.013Z,21.70
2023-06-11T22:06:17.924Z,21.80
2023-06-11T22:10:00.193Z,21.70
2023-06-11T22:13:42.001Z,21.70
2023-06-11T22:17:28.016Z,21.70
2023-06-11T22:21:10.128Z,21.60
2023-06-11T22:24:53.665Z,21.60
2023-06-11T22:28:36.841Z,21.50
2023-06-11T22:32:18.770Z,21.50
2023-06-11T22:36:00.609Z,21.40
2023-06-11T22:39:42.449Z,21.30
2023-06-11T22:43:24.287Z,21.20
2023-06-11T22:47:06.694Z,21.10
2023-06-11T22:50:48.683Z,21.00
2023-06-11T22:54:30.663Z,21.00
2023-06-11T22:58:12.643Z,20.90
2023-06-11T23:01:54.575Z,20.90
2023-06-11T23:05:37.616Z,20.80
2023-06-11T23:09:20.900Z,20.70
2023-06-11T23:13:02.714Z,20.70
2023-06-11T23:16:48.966Z,20.60
2023-06-11T23:20:31.676Z,20.50
2023-06-11T23:24:13.929Z,20.50
2023-06-11T23:27:56.055Z,20.40
2023-06-11T23:31:40.172Z,20.40
2023-06-11T23:35:22.742Z,20.40
2023-06-11T23:39:04.694Z,20.30
2023-06-11T23:42:46.854Z,20.30
2023-06-11T23:46:28.843Z,20.20
2023-06-11T23:50:11.354Z,20.10
2023-06-11T23:53:53.898Z,20.10
2023-06-11T23:57:37.730Z,20.00
